VISION2 KPHX-KFLG
Flight info
| Callsign | VISION2 |
|---|---|
| Flight time | 0h 37m |
| Altitude | 16000 |
| Route | QUAKY1 CARTL FLG |
| Aircraft | SF50/L-BGS/L |
Departure
| Time | 2026-05-04 00:20 |
|---|---|
| Airport | Phoenix Sky Harbor International Airport (KPHX) |
Arrival
| Time | 2026-05-04 00:57 |
|---|---|
| Airport | Flagstaff Pulliam Airport (KFLG) |
| Time | Latitude | Longitude | Altitude | Speed | Heading |
|---|---|---|---|---|---|
| 2026-05-04 00:08 | 33.42633 | -112.01829 | 1121 ft | 0 kts | 270° |
| 2026-05-04 00:13 | 33.42640 | -112.01865 | 1121 ft | 6 kts | 302° |
| 2026-05-04 00:13 | 33.42680 | -112.01886 | 1124 ft | 0 kts | 358° |
| 2026-05-04 00:14 | 33.42683 | -112.01886 | 1124 ft | 4 kts | 0° |
| 2026-05-04 00:14 | 33.42729 | -112.01816 | 1122 ft | 16 kts | 87° |
| 2026-05-04 00:14 | 33.42730 | -112.01737 | 1124 ft | 13 kts | 84° |
| 2026-05-04 00:14 | 33.42774 | -112.01674 | 1121 ft | 13 kts | 81° |
| 2026-05-04 00:15 | 33.42775 | -112.01504 | 1125 ft | 18 kts | 91° |
| 2026-05-04 00:15 | 33.42776 | -112.01341 | 1125 ft | 19 kts | 89° |
| 2026-05-04 00:15 | 33.42776 | -112.01243 | 1125 ft | 16 kts | 91° |
| 2026-05-04 00:15 | 33.42782 | -112.01097 | 1125 ft | 11 kts | 81° |
| 2026-05-04 00:16 | 33.42792 | -112.01046 | 1125 ft | 8 kts | 73° |
| 2026-05-04 00:16 | 33.42804 | -112.01000 | 1123 ft | 4 kts | 108° |
| 2026-05-04 00:16 | 33.42799 | -112.00983 | 1125 ft | 0 kts | 110° |
| 2026-05-04 00:16 | 33.42778 | -112.00909 | 1121 ft | 24 kts | 107° |
| 2026-05-04 00:17 | 33.42775 | -112.00710 | 1125 ft | 22 kts | 90° |
| 2026-05-04 00:17 | 33.42779 | -112.00560 | 1125 ft | 14 kts | 63° |
| 2026-05-04 00:17 | 33.42787 | -112.00545 | 1120 ft | 0 kts | 45° |
| 2026-05-04 00:18 | 33.42811 | -112.00528 | 1124 ft | 12 kts | 15° |
| 2026-05-04 00:18 | 33.42883 | -112.00554 | 1127 ft | 10 kts | 275° |
| 2026-05-04 00:19 | 33.42884 | -112.00593 | 1127 ft | 0 kts | 273° |
| 2026-05-04 00:19 | 33.42884 | -112.00605 | 1127 ft | 8 kts | 269° |
| 2026-05-04 00:19 | 33.42880 | -112.00982 | 1127 ft | 84 kts | 253° |
| 2026-05-04 00:20 | 33.42890 | -112.01824 | 1433 ft | 115 kts | 264° |
| 2026-05-04 00:20 | 33.42936 | -112.02826 | 1896 ft | 131 kts | 263° |
| 2026-05-04 00:20 | 33.42974 | -112.04032 | 2451 ft | 156 kts | 265° |
| 2026-05-04 00:20 | 33.43012 | -112.05366 | 3258 ft | 166 kts | 265° |
| 2026-05-04 00:21 | 33.43044 | -112.06768 | 4088 ft | 169 kts | 266° |
| 2026-05-04 00:21 | 33.43086 | -112.08190 | 4965 ft | 172 kts | 265° |
| 2026-05-04 00:21 | 33.43078 | -112.09606 | 5900 ft | 172 kts | 263° |
| 2026-05-04 00:21 | 33.43080 | -112.11056 | 6685 ft | 177 kts | 264° |
| 2026-05-04 00:22 | 33.43074 | -112.12545 | 7480 ft | 179 kts | 263° |
| 2026-05-04 00:22 | 33.43070 | -112.14049 | 8263 ft | 186 kts | 266° |
| 2026-05-04 00:22 | 33.43389 | -112.15594 | 9010 ft | 201 kts | 294° |
| 2026-05-04 00:22 | 33.44430 | -112.16780 | 9761 ft | 211 kts | 324° |
| 2026-05-04 00:23 | 33.45799 | -112.17499 | 10198 ft | 218 kts | 335° |
| 2026-05-04 00:23 | 33.47212 | -112.18147 | 10753 ft | 216 kts | 334° |
| 2026-05-04 00:23 | 33.48648 | -112.18712 | 11207 ft | 223 kts | 342° |
| 2026-05-04 00:23 | 33.50172 | -112.19099 | 11726 ft | 222 kts | 344° |
| 2026-05-04 00:24 | 33.51688 | -112.19505 | 12226 ft | 225 kts | 343° |
| 2026-05-04 00:24 | 33.53256 | -112.19785 | 12600 ft | 235 kts | 357° |
| 2026-05-04 00:24 | 33.54882 | -112.19576 | 13116 ft | 234 kts | 6° |
| 2026-05-04 00:24 | 33.56518 | -112.19266 | 13462 ft | 242 kts | 11° |
| 2026-05-04 00:25 | 33.58122 | -112.18540 | 13742 ft | 251 kts | 27° |
| 2026-05-04 00:25 | 33.59657 | -112.17626 | 14206 ft | 248 kts | 21° |
| 2026-05-04 00:25 | 33.61280 | -112.16882 | 14675 ft | 245 kts | 24° |
| 2026-05-04 00:25 | 33.62638 | -112.15659 | 15145 ft | 244 kts | 45° |
| 2026-05-04 00:26 | 33.63791 | -112.14212 | 15618 ft | 242 kts | 46° |
| 2026-05-04 00:26 | 33.64966 | -112.12754 | 15985 ft | 248 kts | 46° |
| 2026-05-04 00:26 | 33.66203 | -112.11189 | 16003 ft | 268 kts | 46° |
| 2026-05-04 00:26 | 33.67510 | -112.09509 | 16010 ft | 282 kts | 47° |
| 2026-05-04 00:27 | 33.68875 | -112.07756 | 16008 ft | 291 kts | 46° |
| 2026-05-04 00:27 | 33.70280 | -112.05972 | 16010 ft | 297 kts | 46° |
| 2026-05-04 00:27 | 33.71707 | -112.04157 | 16010 ft | 301 kts | 46° |
| 2026-05-04 00:27 | 33.73151 | -112.02317 | 16008 ft | 303 kts | 46° |
| 2026-05-04 00:28 | 33.74805 | -112.00751 | 15997 ft | 304 kts | 29° |
| 2026-05-04 00:28 | 33.76743 | -111.99745 | 15950 ft | 303 kts | 13° |
| 2026-05-04 00:28 | 33.78803 | -111.99288 | 15950 ft | 301 kts | 4° |
| 2026-05-04 00:28 | 33.80891 | -111.98912 | 15863 ft | 306 kts | 5° |
| 2026-05-04 00:29 | 33.82986 | -111.98508 | 15758 ft | 311 kts | 6° |
| 2026-05-04 00:29 | 33.85140 | -111.98093 | 15695 ft | 314 kts | 6° |
| 2026-05-04 00:29 | 33.87295 | -111.97693 | 15686 ft | 314 kts | 5° |
| 2026-05-04 00:29 | 33.89456 | -111.97282 | 15684 ft | 314 kts | 6° |
| 2026-05-04 00:30 | 33.91614 | -111.96877 | 15685 ft | 313 kts | 5° |
| 2026-05-04 00:30 | 33.93767 | -111.96462 | 15698 ft | 313 kts | 6° |
| 2026-05-04 00:30 | 33.95921 | -111.96051 | 15699 ft | 313 kts | 5° |
| 2026-05-04 00:30 | 33.98074 | -111.95643 | 15699 ft | 313 kts | 5° |
| 2026-05-04 00:31 | 34.00223 | -111.95234 | 15689 ft | 312 kts | 5° |
| 2026-05-04 00:31 | 34.02360 | -111.94817 | 15697 ft | 311 kts | 6° |
| 2026-05-04 00:31 | 34.04504 | -111.94410 | 15709 ft | 312 kts | 5° |
| 2026-05-04 00:31 | 34.06652 | -111.94006 | 15705 ft | 312 kts | 5° |
| 2026-05-04 00:32 | 34.08801 | -111.93630 | 15706 ft | 310 kts | 1° |
| 2026-05-04 00:32 | 34.10906 | -111.93731 | 15697 ft | 304 kts | 349° |
| 2026-05-04 00:32 | 34.13006 | -111.93998 | 15700 ft | 303 kts | 350° |
| 2026-05-04 00:32 | 34.15113 | -111.94208 | 15695 ft | 304 kts | 351° |
| 2026-05-04 00:33 | 34.17207 | -111.94431 | 15701 ft | 301 kts | 350° |
| 2026-05-04 00:33 | 34.21389 | -111.94896 | 15706 ft | 302 kts | 350° |
| 2026-05-04 00:33 | 34.23488 | -111.95133 | 15715 ft | 304 kts | 350° |
| 2026-05-04 00:34 | 34.25598 | -111.95368 | 15714 ft | 304 kts | 350° |
| 2026-05-04 00:34 | 34.27709 | -111.95604 | 15714 ft | 305 kts | 350° |
| 2026-05-04 00:34 | 34.29820 | -111.95840 | 15713 ft | 305 kts | 350° |
| 2026-05-04 00:34 | 34.31935 | -111.96080 | 15720 ft | 305 kts | 350° |
| 2026-05-04 00:35 | 34.34052 | -111.96314 | 15720 ft | 306 kts | 351° |
| 2026-05-04 00:35 | 34.36170 | -111.96539 | 15721 ft | 305 kts | 351° |
| 2026-05-04 00:35 | 34.38296 | -111.96767 | 15723 ft | 307 kts | 350° |
| 2026-05-04 00:35 | 34.40395 | -111.97001 | 15723 ft | 307 kts | 350° |
| 2026-05-04 00:36 | 34.42525 | -111.97241 | 15727 ft | 307 kts | 350° |
| 2026-05-04 00:36 | 34.44655 | -111.97476 | 15727 ft | 307 kts | 350° |
| 2026-05-04 00:36 | 34.46785 | -111.97713 | 15727 ft | 307 kts | 350° |
| 2026-05-04 00:36 | 34.48916 | -111.97947 | 15725 ft | 307 kts | 350° |
| 2026-05-04 00:37 | 34.51044 | -111.98182 | 15727 ft | 307 kts | 350° |
| 2026-05-04 00:37 | 34.53172 | -111.98417 | 15730 ft | 306 kts | 350° |
| 2026-05-04 00:37 | 34.55295 | -111.98652 | 15737 ft | 306 kts | 350° |
| 2026-05-04 00:37 | 34.57404 | -111.98888 | 15747 ft | 303 kts | 349° |
| 2026-05-04 00:38 | 34.59478 | -111.99118 | 15754 ft | 303 kts | 350° |
| 2026-05-04 00:38 | 34.61577 | -111.99344 | 15769 ft | 302 kts | 350° |
| 2026-05-04 00:38 | 34.63669 | -111.99577 | 15779 ft | 302 kts | 350° |
| 2026-05-04 00:38 | 34.65767 | -111.99814 | 15787 ft | 302 kts | 350° |
| 2026-05-04 00:39 | 34.67865 | -112.00046 | 15794 ft | 303 kts | 350° |
| 2026-05-04 00:39 | 34.69964 | -112.00279 | 15810 ft | 303 kts | 351° |
| 2026-05-04 00:39 | 34.72063 | -112.00487 | 15815 ft | 303 kts | 354° |
| 2026-05-04 00:39 | 34.74171 | -112.00199 | 15812 ft | 308 kts | 10° |
| 2026-05-04 00:40 | 34.76192 | -111.99288 | 15816 ft | 312 kts | 26° |
| 2026-05-04 00:40 | 34.77986 | -111.97796 | 15825 ft | 314 kts | 41° |
| 2026-05-04 00:40 | 34.79434 | -111.95812 | 15771 ft | 315 kts | 56° |
| 2026-05-04 00:40 | 34.80698 | -111.93574 | 15464 ft | 327 kts | 58° |
| 2026-05-04 00:41 | 34.82004 | -111.91252 | 15173 ft | 336 kts | 57° |
| 2026-05-04 00:41 | 34.83344 | -111.88899 | 14874 ft | 337 kts | 57° |
| 2026-05-04 00:41 | 34.84670 | -111.86579 | 14564 ft | 331 kts | 57° |
| 2026-05-04 00:41 | 34.85973 | -111.84278 | 14258 ft | 328 kts | 58° |
| 2026-05-04 00:42 | 34.87259 | -111.81999 | 13956 ft | 325 kts | 58° |
| 2026-05-04 00:42 | 34.88523 | -111.79767 | 13645 ft | 324 kts | 58° |
| 2026-05-04 00:42 | 34.89801 | -111.77514 | 13305 ft | 322 kts | 58° |
| 2026-05-04 00:42 | 34.91069 | -111.75288 | 12985 ft | 315 kts | 57° |
| 2026-05-04 00:43 | 34.92285 | -111.73138 | 12653 ft | 302 kts | 59° |
| 2026-05-04 00:43 | 34.93456 | -111.71033 | 12304 ft | 298 kts | 58° |
| 2026-05-04 00:43 | 34.94621 | -111.68966 | 11969 ft | 294 kts | 58° |
| 2026-05-04 00:43 | 34.95781 | -111.66927 | 11644 ft | 292 kts | 57° |
| 2026-05-04 00:44 | 34.96926 | -111.64891 | 11316 ft | 291 kts | 59° |
| 2026-05-04 00:44 | 34.98069 | -111.62857 | 11093 ft | 289 kts | 58° |
| 2026-05-04 00:44 | 34.99212 | -111.60837 | 10791 ft | 290 kts | 59° |
| 2026-05-04 00:44 | 35.00339 | -111.58838 | 10491 ft | 289 kts | 58° |
| 2026-05-04 00:45 | 35.01464 | -111.56818 | 10182 ft | 286 kts | 58° |
| 2026-05-04 00:45 | 35.02578 | -111.54815 | 9787 ft | 283 kts | 57° |
| 2026-05-04 00:45 | 35.03690 | -111.52883 | 9780 ft | 274 kts | 56° |
| 2026-05-04 00:45 | 35.04753 | -111.50990 | 9778 ft | 268 kts | 58° |
| 2026-05-04 00:46 | 35.05799 | -111.49120 | 9769 ft | 265 kts | 57° |
| 2026-05-04 00:46 | 35.06837 | -111.47266 | 9775 ft | 264 kts | 57° |
| 2026-05-04 00:46 | 35.07879 | -111.45422 | 9778 ft | 264 kts | 58° |
| 2026-05-04 00:46 | 35.08935 | -111.43534 | 9777 ft | 272 kts | 57° |
| 2026-05-04 00:47 | 35.10002 | -111.41644 | 9815 ft | 273 kts | 57° |
| 2026-05-04 00:47 | 35.11109 | -111.39709 | 9809 ft | 280 kts | 57° |
| 2026-05-04 00:47 | 35.12224 | -111.37743 | 9844 ft | 281 kts | 57° |
| 2026-05-04 00:47 | 35.13316 | -111.35724 | 9842 ft | 286 kts | 60° |
| 2026-05-04 00:48 | 35.14397 | -111.33679 | 9840 ft | 287 kts | 57° |
| 2026-05-04 00:48 | 35.15712 | -111.31867 | 9819 ft | 287 kts | 40° |
| 2026-05-04 00:48 | 35.17452 | -111.30726 | 9850 ft | 284 kts | 17° |
| 2026-05-04 00:48 | 35.19378 | -111.30240 | 9813 ft | 280 kts | 0° |
| 2026-05-04 00:49 | 35.21302 | -111.30293 | 9795 ft | 269 kts | 351° |
| 2026-05-04 00:49 | 35.23098 | -111.30614 | 9752 ft | 254 kts | 342° |
| 2026-05-04 00:49 | 35.24765 | -111.31148 | 9776 ft | 241 kts | 337° |
| 2026-05-04 00:49 | 35.26224 | -111.32008 | 9782 ft | 226 kts | 315° |
| 2026-05-04 00:50 | 35.27297 | -111.33309 | 9769 ft | 216 kts | 303° |
| 2026-05-04 00:50 | 35.28254 | -111.34694 | 9786 ft | 212 kts | 302° |
| 2026-05-04 00:50 | 35.29166 | -111.36106 | 9798 ft | 208 kts | 298° |
| 2026-05-04 00:50 | 35.29982 | -111.37562 | 9772 ft | 207 kts | 295° |
| 2026-05-04 00:51 | 35.30728 | -111.39059 | 9751 ft | 205 kts | 292° |
| 2026-05-04 00:51 | 35.31263 | -111.40626 | 9757 ft | 196 kts | 274° |
| 2026-05-04 00:51 | 35.31343 | -111.42250 | 9763 ft | 190 kts | 262° |
| 2026-05-04 00:51 | 35.31278 | -111.43859 | 9779 ft | 188 kts | 259° |
| 2026-05-04 00:52 | 35.31070 | -111.45425 | 9780 ft | 186 kts | 250° |
| 2026-05-04 00:52 | 35.30505 | -111.46821 | 9762 ft | 183 kts | 230° |
| 2026-05-04 00:52 | 35.29735 | -111.48030 | 9748 ft | 183 kts | 229° |
| 2026-05-04 00:52 | 35.28940 | -111.49232 | 9789 ft | 181 kts | 228° |
| 2026-05-04 00:53 | 35.28131 | -111.50432 | 9764 ft | 182 kts | 226° |
| 2026-05-04 00:53 | 35.27256 | -111.51544 | 9807 ft | 183 kts | 223° |
| 2026-05-04 00:53 | 35.26293 | -111.52602 | 9815 ft | 189 kts | 220° |
| 2026-05-04 00:53 | 35.25280 | -111.53678 | 9762 ft | 195 kts | 220° |
| 2026-05-04 00:54 | 35.24275 | -111.54857 | 9542 ft | 206 kts | 226° |
| 2026-05-04 00:54 | 35.23302 | -111.56163 | 9340 ft | 210 kts | 225° |
| 2026-05-04 00:54 | 35.22249 | -111.57420 | 9160 ft | 212 kts | 223° |
| 2026-05-04 00:54 | 35.21151 | -111.58624 | 8987 ft | 212 kts | 220° |
| 2026-05-04 00:55 | 35.20085 | -111.59835 | 8779 ft | 198 kts | 225° |
| 2026-05-04 00:55 | 35.19201 | -111.60953 | 8553 ft | 169 kts | 226° |
| 2026-05-04 00:55 | 35.18458 | -111.61967 | 8287 ft | 154 kts | 228° |
| 2026-05-04 00:55 | 35.17778 | -111.62854 | 8034 ft | 133 kts | 224° |
| 2026-05-04 00:56 | 35.17168 | -111.63563 | 7763 ft | 104 kts | 221° |
| 2026-05-04 00:56 | 35.16697 | -111.64073 | 7539 ft | 77 kts | 219° |
| 2026-05-04 00:56 | 35.16296 | -111.64510 | 7418 ft | 84 kts | 220° |
| 2026-05-04 00:56 | 35.15826 | -111.65006 | 7269 ft | 94 kts | 219° |
| 2026-05-04 00:57 | 35.15326 | -111.65541 | 7307 ft | 101 kts | 218° |
| 2026-05-04 00:57 | 35.14837 | -111.66070 | 7138 ft | 81 kts | 218° |
| 2026-05-04 00:57 | 35.14479 | -111.66454 | 7006 ft | 56 kts | 218° |
| 2026-05-04 00:57 | 35.14251 | -111.66693 | 7005 ft | 16 kts | 244° |
| 2026-05-04 00:58 | 35.14278 | -111.66825 | 7011 ft | 14 kts | 268° |
| 2026-05-04 00:58 | 35.14205 | -111.66917 | 7008 ft | 18 kts | 220° |
| 2026-05-04 00:58 | 35.14101 | -111.67032 | 7008 ft | 19 kts | 222° |
| 2026-05-04 00:58 | 35.14001 | -111.67135 | 7008 ft | 17 kts | 219° |
| 2026-05-04 00:59 | 35.13929 | -111.67212 | 7008 ft | 11 kts | 221° |
| 2026-05-04 00:59 | 35.13867 | -111.67279 | 7011 ft | 12 kts | 222° |
| 2026-05-04 00:59 | 35.13819 | -111.67355 | 7008 ft | 10 kts | 247° |
| 2026-05-04 00:59 | 35.13809 | -111.67414 | 7009 ft | 0 kts | 265° |